Time;durP1;ratioP1;P1;durP2;ratioP2;P2;SDS_P1;SDS_P2;PMS_P1;PMS_P2;Temp;Humidity;BMP_temperature;BMP_pressure;BME280_temperature;BME280_humidity;BME280_pressure;Samples;Min_cycle;Max_cycle;Signal;HPM_P1;HPM_P2
2023/06/15 00:01:21;;;;;;;6.30;2.55;;;17.40;99.90;;;;;;5019866;28;20064;-86
2023/06/15 00:04:07;;;;;;;5.03;2.10;;;17.40;99.90;;;;;;5017420;28;20120;-81
2023/06/15 00:06:53;;;;;;;6.55;2.25;;;17.40;99.90;;;;;;5030864;28;20417;-78
2023/06/15 00:09:39;;;;;;;9.68;3.78;;;17.30;99.90;;;;;;5031126;28;20041;-80
2023/06/15 00:12:25;;;;;;;5.25;2.00;;;17.30;99.90;;;;;;5033789;28;20092;-80
2023/06/15 00:15:11;;;;;;;9.70;2.28;;;17.30;99.90;;;;;;5032429;28;20055;-79
2023/06/15 00:17:57;;;;;;;4.45;2.58;;;17.30;99.90;;;;;;5030802;28;20187;-81
2023/06/15 00:20:44;;;;;;;9.60;2.30;;;17.30;99.90;;;;;;5011901;28;20106;-79
2023/06/15 00:23:32;;;;;;;6.25;2.33;;;17.30;99.90;;;;;;5034200;28;20045;-79
2023/06/15 00:26:18;;;;;;;3.97;1.90;;;17.20;99.90;;;;;;5013586;28;20057;-81
2023/06/15 00:29:04;;;;;;;4.97;1.95;;;17.20;99.90;;;;;;5035279;28;20045;-80
2023/06/15 00:31:50;;;;;;;5.55;2.35;;;17.20;99.90;;;;;;5017076;28;20054;-88
2023/06/15 00:34:36;;;;;;;9.60;2.40;;;17.20;99.90;;;;;;5033235;28;20081;-86
2023/06/15 00:37:22;;;;;;;5.05;2.03;;;17.10;99.90;;;;;;5032735;28;20049;-86
2023/06/15 00:40:09;;;;;;;5.57;2.25;;;17.10;99.90;;;;;;5014463;28;20095;-81
2023/06/15 00:42:55;;;;;;;6.70;2.58;;;17.10;99.90;;;;;;5032793;28;20102;-84
2023/06/15 00:45:41;;;;;;;5.57;2.35;;;17.10;99.90;;;;;;5019372;28;20628;-80
2023/06/15 00:48:28;;;;;;;5.30;2.10;;;17.00;99.90;;;;;;5014047;28;20060;-81
2023/06/15 00:51:15;;;;;;;9.75;2.67;;;17.00;99.90;;;;;;5034593;28;20060;-88
2023/06/15 00:54:02;;;;;;;10.02;3.63;;;17.00;99.90;;;;;;5034689;28;20162;-80
2023/06/15 00:56:50;;;;;;;7.93;2.33;;;16.90;99.90;;;;;;5032659;28;20060;-80
2023/06/15 00:59:39;;;;;;;7.40;2.53;;;16.90;99.90;;;;;;5015385;28;20695;-85
2023/06/15 01:02:26;;;;;;;6.18;2.15;;;16.90;99.90;;;;;;5037111;28;20081;-81
2023/06/15 01:05:16;;;;;;;8.18;2.45;;;16.90;99.90;;;;;;5030295;28;20516;-81
2023/06/15 01:08:07;;;;;;;7.72;2.20;;;16.80;99.90;;;;;;5030564;28;20494;-87
2023/06/15 01:10:54;;;;;;;10.10;2.42;;;16.80;99.90;;;;;;5034743;28;20057;-80
2023/06/15 01:13:43;;;;;;;7.43;2.78;;;16.80;99.90;;;;;;5009297;28;20066;-80
2023/06/15 01:16:38;;;;;;;7.15;2.40;;;16.70;99.90;;;;;;5014798;28;20084;-88
2023/06/15 01:19:37;;;;;;;9.27;2.65;;;16.70;99.90;;;;;;5009491;28;20054;-83
2023/06/15 01:22:45;;;;;;;7.72;2.58;;;16.70;99.90;;;;;;5009280;28;20060;-83
2023/06/15 01:25:44;;;;;;;5.80;2.70;;;16.60;99.90;;;;;;5015399;28;20053;-91
2023/06/15 01:28:30;;;;;;;7.63;2.65;;;16.60;99.90;;;;;;5011496;28;20054;-82
2023/06/15 01:31:17;;;;;;;6.68;2.53;;;16.60;99.90;;;;;;5018338;28;20050;-80
2023/06/15 01:34:03;;;;;;;5.20;2.60;;;16.50;99.90;;;;;;5012019;28;20142;-86
2023/06/15 01:36:50;;;;;;;7.35;2.80;;;16.50;99.90;;;;;;5022789;28;20105;-90
2023/06/15 01:39:39;;;;;;;6.18;2.60;;;16.50;99.90;;;;;;5013562;28;20054;-80
2023/06/15 01:42:25;;;;;;;8.60;2.60;;;16.50;99.90;;;;;;5012295;28;20050;-84
2023/06/15 01:45:13;;;;;;;5.28;2.28;;;16.50;99.90;;;;;;5013607;28;20046;-81
2023/06/15 01:47:59;;;;;;;8.38;2.67;;;16.50;99.90;;;;;;5021449;28;20090;-79
2023/06/15 01:50:47;;;;;;;6.53;3.10;;;16.40;99.90;;;;;;5026893;28;20137;-83
2023/06/15 01:53:33;;;;;;;9.63;2.67;;;16.40;99.90;;;;;;5009946;28;20137;-81
2023/06/15 01:56:19;;;;;;;5.82;2.35;;;16.40;99.90;;;;;;5010594;28;20053;-80
2023/06/15 01:59:05;;;;;;;4.82;2.47;;;16.30;99.90;;;;;;5025983;28;20054;-80
2023/06/15 02:01:52;;;;;;;7.88;2.42;;;16.30;99.90;;;;;;5030204;28;20050;-88
2023/06/15 02:04:38;;;;;;;6.13;2.70;;;16.30;99.90;;;;;;5010532;28;20081;-83
2023/06/15 02:07:25;;;;;;;6.80;2.75;;;16.30;99.90;;;;;;5009470;28;20045;-81
2023/06/15 02:10:11;;;;;;;7.00;2.70;;;16.30;99.90;;;;;;5009077;28;20046;-84
2023/06/15 02:12:57;;;;;;;6.10;2.40;;;16.20;99.90;;;;;;5015492;28;20057;-81
2023/06/15 02:15:43;;;;;;;7.97;3.53;;;16.20;99.90;;;;;;5014400;28;20056;-80
2023/06/15 02:18:30;;;;;;;9.63;2.90;;;16.20;99.90;;;;;;5037029;28;20140;-91
2023/06/15 02:21:16;;;;;;;6.60;2.38;;;16.10;99.90;;;;;;5042645;28;20046;-81
2023/06/15 02:24:02;;;;;;;7.47;2.90;;;16.10;99.90;;;;;;5032505;28;20068;-80
2023/06/15 02:26:49;;;;;;;8.98;2.70;;;16.10;99.90;;;;;;5032746;28;20053;-87
2023/06/15 02:29:35;;;;;;;6.40;2.60;;;16.00;99.90;;;;;;5033706;28;20060;-91
2023/06/15 02:32:34;;;;;;;7.68;2.65;;;16.00;99.90;;;;;;5032189;28;20163;-82
2023/06/15 02:35:21;;;;;;;23.98;5.72;;;15.90;99.90;;;;;;5034556;28;20156;-91
2023/06/15 02:38:07;;;;;;;8.27;2.72;;;15.90;99.90;;;;;;5035600;28;20053;-79
2023/06/15 02:40:53;;;;;;;7.13;2.88;;;15.90;99.90;;;;;;5031607;28;20119;-80
2023/06/15 02:43:40;;;;;;;8.52;3.00;;;15.80;99.90;;;;;;5031627;28;20049;-80
2023/06/15 02:46:25;;;;;;;6.55;2.60;;;15.70;99.90;;;;;;5014864;28;20061;-79
2023/06/15 02:49:12;;;;;;;6.07;3.03;;;15.70;99.90;;;;;;5013899;28;20088;-81
2023/06/15 02:51:58;;;;;;;7.22;2.35;;;15.70;99.90;;;;;;5035091;28;20417;-80
2023/06/15 02:54:45;;;;;;;5.43;2.63;;;15.60;99.90;;;;;;5019375;28;20065;-81
2023/06/15 02:57:31;;;;;;;9.10;2.72;;;15.60;99.90;;;;;;5030916;28;20049;-81
2023/06/15 03:00:17;;;;;;;5.40;2.95;;;15.50;99.90;;;;;;5013635;28;20057;-86
2023/06/15 03:03:03;;;;;;;4.60;2.20;;;15.50;99.90;;;;;;5032907;28;20152;-84
2023/06/15 03:05:51;;;;;;;11.82;3.15;;;15.40;99.90;;;;;;5031792;28;20460;-84
2023/06/15 03:08:38;;;;;;;5.05;2.30;;;15.40;99.90;;;;;;5018174;28;20056;-90
2023/06/15 03:11:24;;;;;;;7.35;2.53;;;15.40;99.90;;;;;;5004148;28;20060;-84
2023/06/15 03:14:10;;;;;;;6.70;2.70;;;15.30;99.90;;;;;;5034414;28;20054;-81
2023/06/15 03:16:56;;;;;;;4.78;2.03;;;15.30;99.90;;;;;;5013201;28;20064;-91
2023/06/15 03:19:44;;;;;;;6.70;2.60;;;15.20;99.90;;;;;;5013735;28;20049;-87
2023/06/15 03:22:31;;;;;;;4.97;2.60;;;15.20;99.90;;;;;;5017737;28;20058;-90
2023/06/15 03:25:17;;;;;;;8.50;2.72;;;15.20;99.90;;;;;;5015855;28;20061;-82
2023/06/15 03:28:03;;;;;;;7.95;2.97;;;15.20;99.90;;;;;;5031562;28;20064;-83
2023/06/15 03:30:53;;;;;;;8.07;2.58;;;15.20;99.90;;;;;;5031234;28;20409;-87
2023/06/15 03:33:40;;;;;;;6.75;2.72;;;15.20;99.90;;;;;;5017318;28;20049;-85
2023/06/15 03:36:30;;;;;;;4.85;2.42;;;15.20;99.90;;;;;;5031330;28;20060;-87
2023/06/15 03:39:16;;;;;;;8.57;2.75;;;15.20;99.90;;;;;;5036209;28;20085;-84
2023/06/15 03:42:03;;;;;;;6.50;2.58;;;15.20;99.90;;;;;;5031393;28;20563;-84
2023/06/15 03:44:49;;;;;;;6.32;2.75;;;15.20;99.90;;;;;;5030605;28;20109;-80
2023/06/15 03:47:35;;;;;;;6.40;2.88;;;15.10;99.90;;;;;;5032080;28;20045;-80
2023/06/15 03:50:22;;;;;;;6.45;2.65;;;15.10;99.90;;;;;;5013425;28;20455;-91
2023/06/15 03:53:08;;;;;;;7.30;2.97;;;15.10;99.90;;;;;;5036617;28;20049;-82
2023/06/15 03:55:54;;;;;;;6.10;2.90;;;15.10;99.90;;;;;;5012150;28;20064;-84
2023/06/15 03:58:40;;;;;;;5.85;2.83;;;15.20;99.90;;;;;;5012877;28;20473;-82
2023/06/15 04:01:26;;;;;;;5.70;2.72;;;15.20;99.90;;;;;;5031332;28;20049;-82
2023/06/15 04:04:14;;;;;;;6.80;2.70;;;15.20;99.90;;;;;;5034741;28;20049;-81
2023/06/15 04:07:00;;;;;;;6.32;2.42;;;15.20;99.90;;;;;;5032778;28;20053;-81
2023/06/15 04:09:46;;;;;;;8.80;2.60;;;15.20;99.90;;;;;;5031270;28;20132;-91
2023/06/15 04:12:32;;;;;;;7.30;2.95;;;15.20;99.90;;;;;;5033696;28;20049;-84
2023/06/15 04:15:19;;;;;;;6.03;2.45;;;15.30;99.90;;;;;;5012745;28;20053;-92
2023/06/15 04:18:05;;;;;;;7.80;3.38;;;15.30;99.90;;;;;;5013186;28;20049;-89
2023/06/15 04:20:52;;;;;;;8.63;3.30;;;15.30;99.90;;;;;;4999391;28;20520;-91
2023/06/15 04:23:39;;;;;;;8.30;3.00;;;15.40;99.90;;;;;;5015310;28;20045;-91
2023/06/15 04:26:26;;;;;;;8.18;3.00;;;15.50;99.90;;;;;;5031070;28;20076;-90
2023/06/15 04:29:12;;;;;;;6.07;2.47;;;15.50;99.90;;;;;;5013411;28;20493;-84
2023/06/15 04:31:58;;;;;;;8.57;3.10;;;15.50;99.90;;;;;;5035407;28;20456;-86
2023/06/15 04:34:47;;;;;;;9.77;3.40;;;15.70;99.90;;;;;;5030317;28;20045;-90
2023/06/15 04:37:33;;;;;;;7.80;2.70;;;15.70;99.90;;;;;;5030046;28;20549;-90
2023/06/15 04:40:20;;;;;;;7.45;3.15;;;15.90;99.90;;;;;;5015553;28;20053;-91
2023/06/15 04:43:06;;;;;;;9.93;3.13;;;16.00;99.90;;;;;;5000648;28;20416;-90
2023/06/15 04:45:52;;;;;;;8.18;3.20;;;16.10;99.90;;;;;;5012964;28;20053;-84
2023/06/15 04:48:43;;;;;;;8.70;3.10;;;16.30;99.90;;;;;;5012787;28;20515;-80
2023/06/15 04:51:30;;;;;;;8.45;3.03;;;16.40;99.90;;;;;;5030984;28;20458;-82
2023/06/15 04:54:16;;;;;;;10.07;3.40;;;16.60;99.90;;;;;;4999196;28;20050;-80
2023/06/15 04:57:08;;;;;;;6.85;2.90;;;16.70;99.90;;;;;;5017214;28;20084;-80
2023/06/15 04:59:54;;;;;;;9.00;2.97;;;16.80;99.90;;;;;;5032316;28;20053;-88
2023/06/15 05:02:40;;;;;;;8.30;3.28;;;17.00;99.90;;;;;;5012451;28;20081;-84
2023/06/15 05:05:26;;;;;;;8.85;2.88;;;17.10;99.90;;;;;;5012306;28;20052;-86
2023/06/15 05:08:13;;;;;;;7.78;3.40;;;17.20;99.90;;;;;;5032024;28;20057;-86
2023/06/15 05:11:00;;;;;;;7.45;2.42;;;17.30;99.90;;;;;;5033064;28;20046;-82
2023/06/15 05:13:46;;;;;;;7.55;2.60;;;17.50;99.90;;;;;;5031273;28;20092;-85
2023/06/15 05:16:33;;;;;;;8.20;3.30;;;17.50;99.90;;;;;;5013365;28;20406;-83
2023/06/15 05:19:19;;;;;;;12.05;3.17;;;17.70;99.90;;;;;;5030781;28;20038;-89
2023/06/15 05:22:06;;;;;;;8.35;3.10;;;17.80;99.90;;;;;;5030874;28;20128;-83
2023/06/15 05:24:52;;;;;;;8.02;3.78;;;17.90;99.90;;;;;;5031856;28;20223;-87
2023/06/15 05:27:38;;;;;;;6.03;3.03;;;18.00;99.90;;;;;;5030923;28;20477;-80
2023/06/15 05:30:26;;;;;;;7.88;3.00;;;18.10;99.90;;;;;;5038806;28;20049;-93
2023/06/15 05:33:12;;;;;;;8.95;2.60;;;18.30;99.90;;;;;;5029666;28;20085;-83
2023/06/15 05:35:58;;;;;;;6.10;2.63;;;18.40;99.90;;;;;;5015773;28;20111;-83
2023/06/15 05:38:44;;;;;;;9.05;3.33;;;18.50;99.90;;;;;;5030316;28;20195;-85
2023/06/15 05:41:31;;;;;;;9.05;3.10;;;18.60;99.90;;;;;;5030588;28;20076;-84
2023/06/15 05:44:17;;;;;;;5.43;2.78;;;18.70;99.90;;;;;;5030227;28;20156;-85
2023/06/15 05:47:04;;;;;;;6.10;2.70;;;18.90;99.90;;;;;;5012608;28;20065;-91
2023/06/15 05:49:51;;;;;;;6.07;2.88;;;19.00;99.90;;;;;;5005254;28;20144;-87
2023/06/15 05:52:37;;;;;;;11.43;2.85;;;19.10;99.90;;;;;;5018564;28;20054;-86
2023/06/15 05:55:23;;;;;;;4.97;2.38;;;19.30;99.90;;;;;;5035726;28;20084;-84
2023/06/15 05:58:09;;;;;;;7.30;2.53;;;19.40;99.90;;;;;;5018370;28;20046;-93
2023/06/15 06:00:55;;;;;;;8.40;2.83;;;19.50;99.90;;;;;;5039718;28;20048;-93
2023/06/15 06:03:41;;;;;;;5.38;2.60;;;19.70;99.90;;;;;;5037090;28;20046;-82
2023/06/15 06:06:27;;;;;;;8.60;3.33;;;19.70;99.90;;;;;;5033867;28;20056;-81
2023/06/15 06:09:13;;;;;;;11.23;2.42;;;19.80;99.90;;;;;;5003519;28;20065;-82
2023/06/15 06:12:01;;;;;;;8.60;2.40;;;20.00;99.90;;;;;;5032591;28;20462;-82
2023/06/15 06:14:47;;;;;;;6.38;2.53;;;20.10;99.90;;;;;;5016237;28;20042;-80
2023/06/15 06:17:33;;;;;;;9.27;2.53;;;20.10;99.90;;;;;;5036052;28;20095;-81
2023/06/15 06:20:19;;;;;;;5.80;2.45;;;20.20;99.90;;;;;;5033943;28;20551;-80
2023/06/15 06:23:05;;;;;;;7.88;2.22;;;20.40;99.90;;;;;;5019587;28;20132;-82
2023/06/15 06:25:51;;;;;;;5.65;2.42;;;20.50;99.90;;;;;;5024845;28;20060;-81
2023/06/15 06:28:37;;;;;;;6.75;2.42;;;20.70;99.90;;;;;;5035145;28;20045;-82
2023/06/15 06:31:23;;;;;;;9.38;2.58;;;20.80;99.90;;;;;;5015314;28;20061;-82
2023/06/15 06:34:10;;;;;;;9.18;2.92;;;21.00;99.90;;;;;;5033284;28;20084;-82
2023/06/15 06:36:57;;;;;;;4.85;2.50;;;21.20;99.90;;;;;;5017168;28;20095;-86
2023/06/15 06:39:43;;;;;;;6.28;2.47;;;21.30;99.90;;;;;;5020815;28;20394;-91
2023/06/15 06:42:29;;;;;;;10.68;2.50;;;21.40;99.90;;;;;;5023066;28;20057;-91
2023/06/15 06:45:16;;;;;;;6.50;2.33;;;21.60;99.90;;;;;;5019490;28;20050;-86
2023/06/15 06:48:02;;;;;;;6.57;2.63;;;21.60;99.80;;;;;;5001988;28;20048;-81
2023/06/15 06:50:48;;;;;;;6.13;2.35;;;21.80;99.60;;;;;;5020374;28;20049;-82
2023/06/15 06:53:34;;;;;;;6.70;1.90;;;22.00;99.40;;;;;;5020484;28;20064;-81
2023/06/15 06:56:21;;;;;;;8.63;2.63;;;22.00;98.70;;;;;;5034386;28;20071;-83
2023/06/15 06:59:07;;;;;;;4.82;2.35;;;22.30;98.60;;;;;;5034823;28;20046;-82
2023/06/15 07:01:53;;;;;;;7.65;2.28;;;22.30;97.90;;;;;;5039472;28;20054;-88
2023/06/15 07:04:39;;;;;;;5.97;2.15;;;22.50;97.10;;;;;;5016919;28;20041;-84
2023/06/15 07:07:25;;;;;;;7.85;2.50;;;22.70;97.10;;;;;;5033856;28;20049;-84
2023/06/15 07:10:12;;;;;;;7.22;2.38;;;22.90;96.30;;;;;;5036906;28;20041;-81
2023/06/15 07:12:58;;;;;;;6.53;2.10;;;23.00;95.60;;;;;;5042723;28;20029;-88
2023/06/15 07:15:44;;;;;;;9.05;2.58;;;23.20;95.00;;;;;;5037306;28;20087;-86
2023/06/15 07:18:30;;;;;;;7.60;1.83;;;23.30;94.10;;;;;;5034097;28;20053;-83
2023/06/15 07:21:16;;;;;;;6.57;1.85;;;23.40;93.00;;;;;;5032040;28;20049;-80
2023/06/15 07:24:03;;;;;;;4.80;1.80;;;23.50;92.80;;;;;;5032934;28;20049;-81
2023/06/15 07:26:49;;;;;;;8.30;1.92;;;23.80;92.00;;;;;;5020607;28;20052;-79
2023/06/15 07:29:35;;;;;;;9.02;1.90;;;23.90;91.40;;;;;;5035705;28;20056;-79
2023/06/15 07:32:21;;;;;;;8.02;2.50;;;23.90;90.40;;;;;;5040597;28;20049;-83
2023/06/15 07:35:07;;;;;;;8.50;2.08;;;24.00;89.90;;;;;;5036608;28;20075;-80
2023/06/15 07:37:54;;;;;;;9.77;2.67;;;24.20;90.00;;;;;;5041699;28;20053;-80
2023/06/15 07:40:40;;;;;;;4.82;1.90;;;24.40;88.80;;;;;;5035738;28;20049;-85
2023/06/15 07:43:26;;;;;;;8.77;2.30;;;24.40;88.00;;;;;;5033092;28;20045;-82
2023/06/15 07:46:12;;;;;;;12.45;2.85;;;24.50;85.80;;;;;;5031630;28;20049;-79
2023/06/15 07:48:59;;;;;;;7.13;1.80;;;24.70;85.40;;;;;;5031328;28;20049;-79
2023/06/15 07:51:45;;;;;;;8.27;1.73;;;24.70;83.10;;;;;;5031820;28;20046;-80
2023/06/15 07:54:31;;;;;;;10.25;2.10;;;25.00;83.30;;;;;;5034947;28;20053;-82
2023/06/15 07:57:17;;;;;;;8.63;2.20;;;25.10;83.40;;;;;;5033312;28;20061;-81
2023/06/15 08:00:06;;;;;;;4.65;1.70;;;25.30;83.10;;;;;;5029992;28;20126;-79
2023/06/15 08:02:53;;;;;;;6.63;2.35;;;25.30;80.10;;;;;;5031069;28;20068;-79
2023/06/15 08:05:39;;;;;;;5.20;2.90;;;25.50;81.00;;;;;;5030234;28;20512;-79
2023/06/15 08:08:25;;;;;;;5.55;2.50;;;25.60;78.70;;;;;;4998343;28;20057;-83
2023/06/15 08:11:11;;;;;;;6.43;2.65;;;25.60;79.60;;;;;;5029412;28;20049;-79
2023/06/15 08:13:57;;;;;;;9.40;3.00;;;25.70;79.40;;;;;;5034321;28;20448;-81
2023/06/15 08:16:43;;;;;;;6.57;2.50;;;25.70;79.00;;;;;;5030633;28;20057;-78
2023/06/15 08:19:30;;;;;;;5.70;2.85;;;25.80;77.20;;;;;;5012488;28;20057;-79
2023/06/15 08:22:16;;;;;;;6.82;2.60;;;25.70;77.80;;;;;;5029890;28;20055;-79
2023/06/15 08:25:03;;;;;;;9.13;2.70;;;25.70;78.70;;;;;;5018243;28;20111;-80
2023/06/15 08:27:49;;;;;;;9.90;3.30;;;25.90;77.90;;;;;;5032241;28;20046;-82
2023/06/15 08:30:35;;;;;;;5.05;2.40;;;26.00;77.80;;;;;;5015805;28;20496;-87
2023/06/15 08:33:22;;;;;;;5.05;2.00;;;26.00;78.10;;;;;;5012406;28;20164;-79
2023/06/15 08:36:08;;;;;;;6.40;2.40;;;26.20;77.80;;;;;;4999794;28;20159;-80
2023/06/15 08:38:54;;;;;;;8.32;2.67;;;26.10;75.40;;;;;;5029858;28;20049;-81
2023/06/15 08:41:42;;;;;;;5.80;1.98;;;26.10;75.30;;;;;;5017197;28;20132;-83
2023/06/15 08:44:32;;;;;;;10.60;1.92;;;26.30;76.50;;;;;;5031643;28;20053;-79
2023/06/15 08:47:18;;;;;;;6.28;2.05;;;26.60;77.30;;;;;;5029855;28;20128;-78
2023/06/15 08:50:06;;;;;;;7.28;2.05;;;26.90;78.00;;;;;;5030874;28;20400;-85
2023/06/15 08:52:52;;;;;;;9.45;2.22;;;27.10;78.00;;;;;;5018445;28;20424;-85
2023/06/15 08:55:38;;;;;;;7.05;2.20;;;27.30;78.30;;;;;;5034446;28;20084;-84
2023/06/15 08:58:25;;;;;;;7.10;2.58;;;27.50;76.90;;;;;;5004564;28;20084;-90
2023/06/15 09:01:11;;;;;;;5.43;2.25;;;27.50;76.70;;;;;;5035605;28;20081;-91
2023/06/15 09:03:57;;;;;;;5.70;2.50;;;27.70;75.40;;;;;;5034389;28;20056;-88
2023/06/15 09:06:42;;;;;;;8.85;2.45;;;27.80;75.20;;;;;;5034034;28;20057;-85
2023/06/15 09:09:29;;;;;;;5.35;1.92;;;27.70;72.80;;;;;;5034955;28;20112;-88
2023/06/15 09:12:19;;;;;;;7.80;1.77;;;27.80;72.00;;;;;;5023062;28;20076;-85
2023/06/15 09:15:07;;;;;;;9.75;2.00;;;28.00;72.60;;;;;;5013334;28;20096;-80
2023/06/15 09:17:57;;;;;;;5.10;1.65;;;28.20;74.10;;;;;;5031038;28;20447;-82
2023/06/15 09:20:43;;;;;;;6.82;1.80;;;28.30;73.10;;;;;;5030808;28;20268;-85
2023/06/15 09:23:33;;;;;;;7.30;1.85;;;28.20;72.00;;;;;;5032599;28;20053;-83
2023/06/15 09:26:27;;;;;;;8.98;2.90;;;28.20;71.20;;;;;;5034605;28;20129;-83
2023/06/15 09:29:13;;;;;;;8.23;1.80;;;28.30;71.00;;;;;;5038301;28;20049;-88
2023/06/15 09:32:01;;;;;;;5.38;1.98;;;28.50;71.20;;;;;;5035807;28;20350;-81
2023/06/15 09:35:00;;;;;;;5.15;2.10;;;28.60;71.30;;;;;;5033774;28;20064;-86
2023/06/15 09:37:54;;;;;;;7.20;1.83;;;28.70;70.90;;;;;;5035812;28;20045;-83
2023/06/15 09:40:40;;;;;;;4.82;1.85;;;28.70;69.50;;;;;;5035498;28;20045;-83
2023/06/15 09:43:33;;;;;;;6.80;1.90;;;28.90;70.20;;;;;;5033216;28;20045;-84
2023/06/15 09:46:20;;;;;;;4.72;1.83;;;28.90;68.40;;;;;;5003470;28;20045;-89
2023/06/15 09:49:23;;;;;;;5.30;1.83;;;29.00;70.00;;;;;;5033203;28;20045;-79
2023/06/15 09:52:11;;;;;;;7.00;2.00;;;29.10;69.00;;;;;;5035262;28;20469;-81
2023/06/15 09:54:59;;;;;;;11.95;2.45;;;29.10;68.40;;;;;;5033782;28;20059;-88
2023/06/15 09:57:46;;;;;;;7.15;1.83;;;28.90;69.60;;;;;;5016742;28;20100;-89
2023/06/15 10:00:32;;;;;;;6.65;2.60;;;28.90;69.10;;;;;;5018189;28;20041;-80
2023/06/15 10:03:22;;;;;;;9.20;2.00;;;28.90;69.50;;;;;;5032402;28;20046;-78
2023/06/15 10:06:12;;;;;;;5.38;1.75;;;29.30;70.40;;;;;;5015892;28;20053;-79
2023/06/15 10:09:04;;;;;;;6.95;1.98;;;29.20;69.80;;;;;;5032332;28;20497;-84
2023/06/15 10:11:52;;;;;;;4.35;2.08;;;29.30;69.50;;;;;;5019443;28;20141;-83
2023/06/15 10:14:55;;;;;;;3.05;1.67;;;29.20;69.80;;;;;;5035070;28;20160;-81
2023/06/15 10:17:46;;;;;;;7.45;1.45;;;29.40;68.20;;;;;;5033577;28;20053;-87
2023/06/15 10:20:34;;;;;;;4.95;2.03;;;29.50;68.40;;;;;;5032225;28;20041;-85
2023/06/15 10:23:25;;;;;;;7.10;1.85;;;29.70;68.70;;;;;;5015202;28;20103;-84
2023/06/15 10:26:12;;;;;;;7.18;1.60;;;29.80;67.20;;;;;;5032102;28;20049;-91
2023/06/15 10:29:08;;;;;;;4.65;1.65;;;30.00;66.60;;;;;;5032013;28;20587;-81
2023/06/15 10:32:15;;;;;;;6.97;1.90;;;29.90;65.70;;;;;;5017224;28;20413;-82
2023/06/15 10:35:32;;;;;;;5.28;1.67;;;30.20;63.50;;;;;;5031331;28;20053;-78
2023/06/15 10:38:42;;;;;;;6.63;2.53;;;30.10;62.50;;;;;;5035163;28;20046;-84
2023/06/15 10:41:29;;;;;;;4.53;1.58;;;30.10;61.70;;;;;;5035463;28;20124;-86
2023/06/15 10:44:15;;;;;;;5.03;2.10;;;30.00;64.00;;;;;;5036642;28;20525;-87
2023/06/15 10:47:07;;;;;;;4.32;1.77;;;30.10;62.70;;;;;;5032281;28;20060;-89
2023/06/15 10:49:53;;;;;;;6.60;2.30;;;30.20;60.30;;;;;;5032902;28;20049;-88
2023/06/15 10:52:39;;;;;;;5.60;1.83;;;30.40;61.80;;;;;;5016525;28;20493;-87
2023/06/15 10:55:27;;;;;;;7.70;1.92;;;30.40;60.70;;;;;;5032457;28;20469;-87
2023/06/15 10:58:15;;;;;;;7.07;1.83;;;30.50;62.90;;;;;;5014971;28;20060;-89
2023/06/15 11:01:15;;;;;;;5.63;1.70;;;30.60;64.10;;;;;;5032873;28;20358;-85
2023/06/15 11:04:21;;;;;;;4.00;1.77;;;30.80;63.90;;;;;;5035936;28;20091;-85
2023/06/15 11:07:10;;;;;;;2.85;1.42;;;31.00;64.30;;;;;;5033085;28;20061;-84
2023/06/15 11:09:57;;;;;;;4.22;1.80;;;31.20;65.50;;;;;;5017624;28;20160;-88
2023/06/15 11:12:44;;;;;;;4.72;1.85;;;31.30;64.60;;;;;;5032322;28;20073;-88
2023/06/15 11:15:33;;;;;;;5.90;2.00;;;31.40;61.70;;;;;;5031090;28;20049;-89
2023/06/15 11:18:19;;;;;;;5.78;1.50;;;31.40;60.50;;;;;;5032200;28;20088;-85
2023/06/15 11:21:05;;;;;;;3.70;1.90;;;31.60;61.70;;;;;;5032086;28;20053;-87
2023/06/15 11:23:57;;;;;;;5.97;1.83;;;31.70;63.20;;;;;;5033810;28;20103;-82
2023/06/15 11:26:48;;;;;;;7.30;1.75;;;31.70;63.30;;;;;;5031265;28;20060;-82
2023/06/15 11:29:40;;;;;;;6.57;2.13;;;31.50;63.60;;;;;;5031998;28;20049;-87
2023/06/15 11:32:27;;;;;;;6.72;1.88;;;31.80;64.40;;;;;;5030931;28;20111;-86
2023/06/15 11:35:13;;;;;;;5.20;1.50;;;31.90;65.40;;;;;;5031141;28;20053;-88
2023/06/15 11:37:59;;;;;;;8.30;1.98;;;31.90;64.40;;;;;;5031919;28;20049;-87
2023/06/15 11:40:47;;;;;;;7.78;2.25;;;31.90;62.80;;;;;;5030695;28;20057;-81
2023/06/15 11:43:37;;;;;;;6.45;1.85;;;31.80;62.90;;;;;;5031109;28;20843;-87
2023/06/15 11:46:25;;;;;;;10.25;2.28;;;31.70;62.90;;;;;;5016464;28;20046;-84
2023/06/15 11:49:11;;;;;;;9.55;2.15;;;31.70;62.30;;;;;;5016521;28;20046;-83
2023/06/15 11:51:57;;;;;;;6.40;1.92;;;31.50;61.60;;;;;;5032396;28;20057;-80
2023/06/15 11:54:43;;;;;;;5.95;2.03;;;31.70;62.80;;;;;;5030660;28;20060;-84
2023/06/15 11:57:30;;;;;;;7.25;1.83;;;31.90;62.30;;;;;;5030770;28;20088;-83
2023/06/15 12:00:17;;;;;;;4.57;1.60;;;31.80;59.60;;;;;;5032900;28;20049;-78
2023/06/15 12:03:11;;;;;;;5.15;1.58;;;31.90;59.80;;;;;;5030562;28;20137;-83
2023/06/15 12:05:57;;;;;;;5.70;1.55;;;32.10;59.10;;;;;;5030704;28;20053;-81
2023/06/15 12:08:50;;;;;;;9.32;1.73;;;32.00;59.80;;;;;;5014892;28;20064;-82
2023/06/15 12:11:37;;;;;;;6.72;1.70;;;31.90;58.40;;;;;;5030223;28;20050;-84
2023/06/15 12:14:24;;;;;;;7.63;1.92;;;32.00;58.20;;;;;;5012850;28;20481;-77
2023/06/15 12:17:11;;;;;;;5.93;1.60;;;31.90;58.40;;;;;;5035086;28;20054;-79
2023/06/15 12:20:09;;;;;;;7.18;2.08;;;32.00;58.20;;;;;;5034092;28;20049;-81
2023/06/15 12:22:55;;;;;;;7.18;2.17;;;32.50;58.00;;;;;;5031774;28;20053;-78
2023/06/15 12:25:45;;;;;;;9.15;2.05;;;32.70;59.00;;;;;;5030312;28;20041;-80
2023/06/15 12:28:32;;;;;;;6.70;1.90;;;32.70;58.50;;;;;;5013745;28;20061;-78
2023/06/15 12:31:18;;;;;;;5.45;1.90;;;32.50;58.40;;;;;;5030592;28;20111;-79
2023/06/15 12:34:08;;;;;;;6.97;2.30;;;32.90;58.30;;;;;;4985730;28;20053;-83
2023/06/15 12:36:57;;;;;;;5.25;1.80;;;32.80;56.20;;;;;;5033431;28;20103;-78
2023/06/15 12:39:47;;;;;;;11.63;1.83;;;33.00;56.60;;;;;;5031202;28;20056;-77
2023/06/15 12:42:35;;;;;;;4.43;1.60;;;33.10;56.90;;;;;;5013211;28;20393;-82
2023/06/15 12:45:21;;;;;;;5.20;1.75;;;32.90;56.20;;;;;;5030550;28;20045;-79
2023/06/15 12:48:07;;;;;;;6.30;1.77;;;32.60;56.70;;;;;;5011696;28;20045;-82
2023/06/15 12:50:53;;;;;;;7.03;2.08;;;32.60;56.10;;;;;;5029127;28;20501;-81
2023/06/15 12:53:39;;;;;;;8.55;1.55;;;32.60;56.10;;;;;;5029943;28;20091;-80
2023/06/15 12:56:28;;;;;;;7.93;1.90;;;32.70;56.60;;;;;;5029557;28;20699;-83
2023/06/15 12:59:14;;;;;;;6.15;2.10;;;32.40;56.20;;;;;;5030135;28;20049;-88
2023/06/15 13:02:00;;;;;;;6.80;1.63;;;32.40;55.40;;;;;;5029488;28;20136;-87
2023/06/15 13:04:46;;;;;;;5.57;1.67;;;32.50;56.40;;;;;;5030409;28;20055;-88
2023/06/15 13:07:33;;;;;;;6.40;1.80;;;32.60;55.50;;;;;;5030428;28;20104;-85
2023/06/15 13:10:19;;;;;;;5.85;1.70;;;32.70;55.50;;;;;;5029846;28;20049;-89
2023/06/15 13:13:05;;;;;;;5.95;1.73;;;32.70;55.40;;;;;;5029053;28;20053;-85
2023/06/15 13:15:52;;;;;;;4.63;1.75;;;33.10;55.50;;;;;;5029123;28;20056;-83
2023/06/15 13:18:38;;;;;;;8.07;1.80;;;33.60;55.20;;;;;;5030561;28;20053;-77
2023/06/15 13:21:25;;;;;;;7.38;2.00;;;33.40;54.80;;;;;;5035008;28;20053;-81
2023/06/15 13:24:11;;;;;;;6.10;1.80;;;33.30;54.90;;;;;;5033579;28;20060;-81
2023/06/15 13:26:58;;;;;;;7.68;1.70;;;33.20;54.70;;;;;;5034036;28;20334;-77
2023/06/15 13:29:44;;;;;;;9.57;2.20;;;33.10;54.80;;;;;;5034396;28;20550;-78
2023/06/15 13:32:30;;;;;;;5.00;1.92;;;33.10;54.90;;;;;;5014136;28;20050;-84
2023/06/15 13:35:16;;;;;;;5.60;1.40;;;33.50;54.80;;;;;;5013120;28;20053;-77
2023/06/15 13:38:05;;;;;;;5.50;1.83;;;33.70;54.30;;;;;;5012654;28;20057;-78
2023/06/15 13:40:51;;;;;;;5.25;1.95;;;33.60;54.30;;;;;;4996961;28;20046;-78
2023/06/15 13:43:37;;;;;;;5.38;1.95;;;33.40;54.70;;;;;;5029001;28;20057;-80
2023/06/15 13:46:23;;;;;;;8.63;1.85;;;33.40;54.30;;;;;;5028992;28;20417;-85
2023/06/15 13:49:09;;;;;;;4.68;1.52;;;33.30;54.80;;;;;;5012391;28;20108;-77
2023/06/15 13:51:56;;;;;;;5.70;1.70;;;33.60;54.70;;;;;;5029189;28;20145;-81
2023/06/15 13:54:42;;;;;;;15.10;2.13;;;34.00;54.80;;;;;;5029524;28;20058;-79
2023/06/15 13:57:28;;;;;;;8.60;2.15;;;34.10;53.80;;;;;;5012496;28;20057;-81
2023/06/15 14:00:16;;;;;;;6.57;2.05;;;34.20;52.60;;;;;;5031846;28;20045;-77
2023/06/15 14:03:04;;;;;;;5.18;1.60;;;33.90;52.70;;;;;;5033068;28;20050;-83
2023/06/15 14:05:50;;;;;;;6.13;1.98;;;34.00;51.70;;;;;;5014880;28;20064;-80
2023/06/15 14:08:36;;;;;;;6.75;1.85;;;34.30;51.90;;;;;;5014961;28;20046;-77
2023/06/15 14:11:22;;;;;;;10.07;2.08;;;34.50;51.40;;;;;;5032286;28;20049;-77
2023/06/15 14:14:08;;;;;;;4.47;2.08;;;34.60;51.10;;;;;;5014672;28;20064;-83
2023/06/15 14:16:54;;;;;;;4.60;1.70;;;35.00;51.70;;;;;;5016065;28;20053;-87
2023/06/15 14:19:40;;;;;;;5.78;1.75;;;35.20;51.00;;;;;;5017996;28;20057;-79
2023/06/15 14:22:27;;;;;;;4.88;1.60;;;35.00;49.70;;;;;;5032724;28;20080;-76
2023/06/15 14:25:13;;;;;;;5.18;1.83;;;35.20;49.80;;;;;;5033465;28;20068;-85
2023/06/15 14:27:59;;;;;;;4.95;1.58;;;35.20;50.10;;;;;;5034417;28;20132;-85
2023/06/15 14:30:45;;;;;;;3.85;1.73;;;35.30;50.40;;;;;;5014457;28;20057;-82